Time;durP1;ratioP1;P1;durP2;ratioP2;P2;SDS_P1;SDS_P2;PMS_P1;PMS_P2;Temp;Humidity;BMP_temperature;BMP_pressure;BME280_temperature;BME280_humidity;BME280_pressure;Samples;Min_cycle;Max_cycle;Signal;HPM_P1;HPM_P2
2022/01/26 00:06:34;;;;;;;;;;;;;;;;;;4994300;28;19924;-48
2022/01/26 00:08:59;;;;;;;;;;;;;;;;;;4994626;28;20012;-47
2022/01/26 00:11:24;;;;;;;;;;;;;;;;;;4994614;28;20427;-48
2022/01/26 00:13:49;;;;;;;;;;;;;;;;;;4994557;28;20328;-48
2022/01/26 00:16:25;;;;;;;;;;;;;;;;;;4994529;28;19984;-49
2022/01/26 00:18:53;;;;;;;;;;;;;;;;;;4994572;28;19906;-47
2022/01/26 00:21:46;;;;;;;;;;;;;;;;;;4994509;28;19913;-47
2022/01/26 00:24:26;;;;;;;;;;;;;;;;;;4997510;28;20424;-51
2022/01/26 00:29:19;;;;;;;;;;;;;;;;;;4997899;28;19914;-48
2022/01/26 00:33:06;;;;;;;;;;;;;;;;;;;;;
2022/01/26 00:39:53;;;;;;;;;;;;;;;;;;4998100;28;19913;-48
2022/01/26 00:42:18;;;;;;;;;;;;;;;;;;4997751;28;20254;-48
2022/01/26 00:44:47;;;;;;;;;;;;;;;;;;4997433;28;19916;-48
2022/01/26 00:47:12;;;;;;;;;;;;;;;;;;4997461;28;20320;-48
2022/01/26 00:49:37;;;;;;;;;;;;;;;;;;4997639;28;19906;-50
2022/01/26 00:52:06;;;;;;;;;;;;;;;;;;4997330;28;20040;-50
2022/01/26 00:54:31;;;;;;;;;;;;;;;;;;4997419;28;19905;-48
2022/01/26 00:56:56;;;;;;;;;;;;;;;;;;4997343;28;19974;-50
2022/01/26 00:59:21;;;;;;;;;;;;;;;;;;4997487;28;20372;-48
2022/01/26 01:01:46;;;;;;;;;;;;;;;;;;4997385;28;20423;-47
2022/01/26 01:04:11;;;;;;;;;;;;;;;;;;4997315;28;19960;-49
2022/01/26 01:06:48;;;;;;;;;;;;;;;;;;4996889;28;19960;-47
2022/01/26 01:09:15;;;;;;;;;;;;;;;;;;4997131;28;19949;-47
2022/01/26 01:11:40;;;;;;;;;;;;;;;;;;4996979;28;19910;-47
2022/01/26 01:14:05;;;;;;;;;;;;;;;;;;4997015;28;19960;-48
2022/01/26 01:16:31;;;;;;;;;;;;;;;;;;4997185;28;19905;-50
2022/01/26 01:19:11;;;;;;;;;;;;;;;;;;4996975;28;19903;-48
2022/01/26 01:25:11;;;;;;;;;;;;;;;;;;4997024;28;19909;-48
2022/01/26 01:29:46;;;;;;;;;;;;;;;;;;4996802;28;19945;-47
2022/01/26 01:32:15;;;;;;;;;;;;;;;;;;4996777;28;19906;-48
2022/01/26 01:34:40;;;;;;;;;;;;;;;;;;4995977;28;20351;-47
2022/01/26 01:37:07;;;;;;;;;;;;;;;;;;4996640;28;19905;-48
2022/01/26 01:39:33;;;;;;;;;;;;;;;;;;4996623;28;19993;-49
2022/01/26 01:41:58;;;;;;;;;;;;;;;;;;4996528;28;19995;-47
2022/01/26 01:44:23;;;;;;;;;;;;;;;;;;4996325;28;19914;-48
2022/01/26 01:46:49;;;;;;;;;;;;;;;;;;5000797;28;19959;-48
2022/01/26 01:49:14;;;;;;;;;;;;;;;;;;5016013;28;19913;-47
2022/01/26 01:51:44;;;;;;;;;;;;;;;;;;5015982;28;19913;-47
2022/01/26 01:54:13;;;;;;;;;;;;;;;;;;5015911;28;19908;-48
2022/01/26 01:56:39;;;;;;;;;;;;;;;;;;5015795;28;19906;-48
2022/01/26 01:59:04;;;;;;;;;;;;;;;;;;5015727;28;19905;-48
2022/01/26 02:01:30;;;;;;;;;;;;;;;;;;5015744;28;20372;-47
2022/01/26 02:03:55;;;;;;;;;;;;;;;;;;5015600;28;20260;-48
2022/01/26 02:06:20;;;;;;;;;;;;;;;;;;5015131;28;19921;-49
2022/01/26 02:08:45;;;;;;;;;;;;;;;;;;5015693;28;19905;-48
2022/01/26 02:11:12;;;;;;;;;;;;;;;;;;5015540;28;20351;-47
2022/01/26 02:13:51;;;;;;;;;;;;;;;;;;5015418;28;20367;-48
2022/01/26 02:16:36;;;;;;;;;;;;;;;;;;5015524;28;19913;-49
2022/01/26 02:51:41;;;;;;;;;;;;;;;;;;4995449;28;19913;-46
2022/01/26 02:57:10;;;;;;;;;;;;;;;;;;4995283;28;19910;-47
2022/01/26 03:00:12;;;;;;;;;;;;;;;;;;4995248;28;19913;-49
2022/01/26 03:05:04;;;;;;;;;;;;;;;;;;4994998;28;19910;-47
2022/01/26 03:07:41;;;;;;;;;;;;;;;;;;;;;
2022/01/26 03:10:09;;;;;;;;;;;;;;;;;;4995019;28;19996;-47
2022/01/26 03:12:51;;;;;;;;;;;;;;;;;;4995169;28;19937;-48
2022/01/26 03:15:24;;;;;;;;;;;;;;;;;;4995230;28;19913;-48
2022/01/26 03:20:35;;;;;;;;;;;;;;;;;;4995105;28;19913;-47
2022/01/26 03:28:46;;;;;;;;;;;;;;;;;;4995217;28;19912;-48
2022/01/26 03:34:00;;;;;;;;;;;;;;;;;;4995110;28;19952;-50
2022/01/26 03:36:28;;;;;;;;;;;;;;;;;;4994854;28;19906;-47
2022/01/26 03:39:05;;;;;;;;;;;;;;;;;;4994884;28;19913;-48
2022/01/26 03:43:57;;;;;;;;;;;;;;;;;;4994906;28;20023;-47
2022/01/26 03:46:22;;;;;;;;;;;;;;;;;;4995491;28;20008;-48
2022/01/26 03:48:47;;;;;;;;;;;;;;;;;;5014433;28;19999;-51
2022/01/26 03:51:12;;;;;;;;;;;;;;;;;;5014261;28;19999;-48
2022/01/26 03:53:37;;;;;;;;;;;;;;;;;;5014243;28;20419;-47
2022/01/26 03:56:02;;;;;;;;;;;;;;;;;;5014194;28;20396;-47
2022/01/26 03:58:27;;;;;;;;;;;;;;;;;;5017740;28;19912;-48
2022/01/26 04:00:52;;;;;;;;;;;;;;;;;;5017987;28;19912;-49
2022/01/26 04:03:17;;;;;;;;;;;;;;;;;;5017956;28;19996;-48
2022/01/26 04:05:43;;;;;;;;;;;;;;;;;;5017564;28;20012;-48
2022/01/26 04:08:14;;;;;;;;;;;;;;;;;;5018020;28;19932;-49
2022/01/26 04:13:11;;;;;;;;;;;;;;;;;;5017853;28;19992;-47
2022/01/26 04:15:37;;;;;;;;;;;;;;;;;;5017636;28;19906;-47
2022/01/26 04:18:04;;;;;;;;;;;;;;;;;;5017720;28;19905;-50
2022/01/26 04:20:35;;;;;;;;;;;;;;;;;;5017700;28;20017;-47
2022/01/26 04:23:43;;;;;;;;;;;;;;;;;;5017728;28;19909;-47
2022/01/26 04:25:53;;;;;;;;;;;;;;;;;;5013612;28;20449;-48
2022/01/26 04:28:25;;;;;;;;;;;;;;;;;;5017410;28;19905;-47
2022/01/26 04:30:50;;;;;;;;;;;;;;;;;;5017374;28;19952;-48
2022/01/26 04:33:16;;;;;;;;;;;;;;;;;;5017316;28;19905;-47
2022/01/26 04:35:44;;;;;;;;;;;;;;;;;;5017360;28;19913;-49
2022/01/26 04:41:07;;;;;;;;;;;;;;;;;;5017483;28;19960;-47
2022/01/26 04:43:37;;;;;;;;;;;;;;;;;;5017329;28;19912;-47
2022/01/26 04:46:02;;;;;;;;;;;;;;;;;;5017120;28;19910;-47
2022/01/26 04:48:27;;;;;;;;;;;;;;;;;;4999099;28;19912;-47
2022/01/26 04:50:52;;;;;;;;;;;;;;;;;;4997583;28;19913;-47
2022/01/26 04:53:17;;;;;;;;;;;;;;;;;;4997365;28;19929;-48
2022/01/26 04:55:42;;;;;;;;;;;;;;;;;;4997294;28;19960;-47
2022/01/26 04:58:07;;;;;;;;;;;;;;;;;;4997146;28;20008;-48
2022/01/26 05:00:33;;;;;;;;;;;;;;;;;;4997235;28;19906;-50
2022/01/26 05:02:58;;;;;;;;;;;;;;;;;;4997165;28;20361;-46
2022/01/26 05:05:23;;;;;;;;;;;;;;;;;;4996990;28;20353;-47
2022/01/26 05:07:48;;;;;;;;;;;;;;;;;;4996578;28;20281;-47
2022/01/26 05:10:13;;;;;;;;;;;;;;;;;;4996556;28;19906;-48
2022/01/26 05:12:39;;;;;;;;;;;;;;;;;;4997177;28;20392;-48
2022/01/26 05:15:05;;;;;;;;;;;;;;;;;;4997203;28;20040;-47
2022/01/26 05:17:30;;;;;;;;;;;;;;;;;;4997026;28;19960;-47
2022/01/26 05:19:58;;;;;;;;;;;;;;;;;;4996923;28;19906;-47
2022/01/26 05:22:23;;;;;;;;;;;;;;;;;;4996872;28;20329;-48
2022/01/26 05:24:48;;;;;;;;;;;;;;;;;;4996875;28;19910;-47
2022/01/26 05:27:13;;;;;;;;;;;;;;;;;;4996697;28;19991;-48
2022/01/26 05:29:38;;;;;;;;;;;;;;;;;;4996637;28;19909;-48
2022/01/26 05:32:03;;;;;;;;;;;;;;;;;;4996634;28;20301;-48
2022/01/26 05:34:28;;;;;;;;;;;;;;;;;;4996537;28;20316;-48
2022/01/26 05:36:54;;;;;;;;;;;;;;;;;;4996658;28;19906;-49
2022/01/26 05:39:19;;;;;;;;;;;;;;;;;;4996574;28;19910;-48
2022/01/26 05:41:44;;;;;;;;;;;;;;;;;;4996546;28;19905;-47
2022/01/26 05:44:09;;;;;;;;;;;;;;;;;;4996276;28;19913;-49
2022/01/26 05:46:42;;;;;;;;;;;;;;;;;;4996275;28;19916;-48
2022/01/26 05:49:07;;;;;;;;;;;;;;;;;;4996530;28;19906;-49
2022/01/26 05:51:33;;;;;;;;;;;;;;;;;;4996365;28;20268;-49
2022/01/26 05:53:58;;;;;;;;;;;;;;;;;;4996461;28;19917;-48
2022/01/26 05:56:23;;;;;;;;;;;;;;;;;;4996134;28;19944;-47
2022/01/26 05:58:48;;;;;;;;;;;;;;;;;;4996293;28;19948;-48
2022/01/26 06:01:14;;;;;;;;;;;;;;;;;;4996297;28;19952;-48
2022/01/26 06:03:39;;;;;;;;;;;;;;;;;;4996098;28;20009;-49
2022/01/26 06:06:04;;;;;;;;;;;;;;;;;;4995748;28;20328;-48
2022/01/26 06:08:29;;;;;;;;;;;;;;;;;;4996047;28;19906;-47
2022/01/26 06:10:59;;;;;;;;;;;;;;;;;;4996040;28;19996;-48
2022/01/26 06:13:24;;;;;;;;;;;;;;;;;;4995887;28;19906;-48
2022/01/26 06:15:49;;;;;;;;;;;;;;;;;;4995875;28;19902;-49
2022/01/26 06:18:14;;;;;;;;;;;;;;;;;;4995884;28;20303;-47
2022/01/26 06:20:39;;;;;;;;;;;;;;;;;;4995368;28;19910;-48
2022/01/26 06:23:05;;;;;;;;;;;;;;;;;;4995846;28;19913;-48
2022/01/26 06:25:30;;;;;;;;;;;;;;;;;;4995629;28;19914;-48
2022/01/26 06:27:58;;;;;;;;;;;;;;;;;;4976721;28;20366;-48
2022/01/26 06:30:23;;;;;;;;;;;;;;;;;;4995022;28;20269;-48
2022/01/26 06:32:48;;;;;;;;;;;;;;;;;;4993572;28;19905;-47
2022/01/26 06:35:13;;;;;;;;;;;;;;;;;;4990694;28;20008;-49
2022/01/26 06:37:38;;;;;;;;;;;;;;;;;;4993963;28;19967;-49
2022/01/26 06:40:04;;;;;;;;;;;;;;;;;;4991854;28;19909;-52
2022/01/26 06:42:35;;;;;;;;;;;;;;;;;;4992391;28;19952;-49
2022/01/26 06:49:50;;;;;;;;;;;;;;;;;;4986209;28;19967;-49
2022/01/26 06:52:15;;;;;;;;;;;;;;;;;;4983459;28;19924;-51
2022/01/26 06:54:41;;;;;;;;;;;;;;;;;;4984592;28;19917;-49
2022/01/26 06:57:06;;;;;;;;;;;;;;;;;;4988803;28;20369;-50
2022/01/26 06:59:31;;;;;;;;;;;;;;;;;;4979178;28;20293;-49
2022/01/26 07:01:56;;;;;;;;;;;;;;;;;;4971903;28;20571;-51
2022/01/26 07:04:21;;;;;;;;;;;;;;;;;;4965891;28;19917;-51
2022/01/26 07:06:46;;;;;;;;;;;;;;;;;;4971779;28;19926;-50
2022/01/26 07:09:11;;;;;;;;;;;;;;;;;;4969179;28;20292;-49
2022/01/26 07:11:36;;;;;;;;;;;;;;;;;;4962134;28;19918;-51
2022/01/26 07:14:06;;;;;;;;;;;;;;;;;;4953266;28;19918;-49
2022/01/26 07:21:59;;;;;;;;;;;;;;;;;;4876637;28;22731;-49
2022/01/26 07:24:25;;;;;;;;;;;;;;;;;;4823307;28;20555;-48
2022/01/26 07:26:53;;;;;;;;;;;;;;;;;;4773888;28;22072;-51
2022/01/26 07:29:22;;;;;;;;;;;;;;;;;;4730047;28;20482;-52
2022/01/26 07:31:47;;;;;;;;;;;;;;;;;;4833699;28;19918;-49
2022/01/26 07:34:14;;;;;;;;;;;;;;;;;;4879408;28;20751;-49
2022/01/26 07:36:39;;;;;;;;;;;;;;;;;;4893263;28;19917;-49
2022/01/26 07:39:08;;;;;;;;;;;;;;;;;;4876546;28;19922;-49
2022/01/26 07:41:33;;;;;;;;;;;;;;;;;;4870729;28;19953;-49
2022/01/26 07:43:58;;;;;;;;;;;;;;;;;;4898147;28;20606;-51
2022/01/26 07:46:24;;;;;;;;;;;;;;;;;;4900335;28;21864;-49
2022/01/26 07:48:49;;;;;;;;;;;;;;;;;;4904261;28;20381;-50
2022/01/26 07:51:14;;;;;;;;;;;;;;;;;;4910982;28;22315;-49
2022/01/26 07:53:40;;;;;;;;;;;;;;;;;;4894666;28;19940;-49
2022/01/26 07:56:05;;;;;;;;;;;;;;;;;;4902381;28;19935;-51
2022/01/26 07:58:30;;;;;;;;;;;;;;;;;;4915445;28;22047;-49
2022/01/26 08:00:55;;;;;;;;;;;;;;;;;;4874098;28;19921;-52
2022/01/26 08:03:20;;;;;;;;;;;;;;;;;;4897217;28;20693;-50
2022/01/26 08:05:45;;;;;;;;;;;;;;;;;;4905341;28;19926;-50
2022/01/26 08:08:11;;;;;;;;;;;;;;;;;;4884501;28;21392;-50
2022/01/26 08:10:36;;;;;;;;;;;;;;;;;;4841673;28;20043;-52
2022/01/26 08:13:26;;;;;;;;;;;;;;;;;;4835282;28;22419;-49
2022/01/26 08:15:56;;;;;;;;;;;;;;;;;;4783630;28;20518;-51
2022/01/26 08:18:22;;;;;;;;;;;;;;;;;;4700396;28;20099;-51
2022/01/26 08:20:47;;;;;;;;;;;;;;;;;;4702736;28;21187;-50
2022/01/26 08:23:12;;;;;;;;;;;;;;;;;;4733443;28;22302;-50
2022/01/26 08:25:37;;;;;;;;;;;;;;;;;;4779250;28;19922;-49
2022/01/26 08:28:08;;;;;;;;;;;;;;;;;;4755563;28;19918;-49
2022/01/26 08:30:37;;;;;;;;;;;;;;;;;;4801544;28;20689;-48
2022/01/26 08:33:02;;;;;;;;;;;;;;;;;;4814816;28;19924;-49
2022/01/26 08:35:27;;;;;;;;;;;;;;;;;;4819573;28;21862;-49
2022/01/26 08:37:52;;;;;;;;;;;;;;;;;;4839700;28;22007;-52
2022/01/26 08:40:17;;;;;;;;;;;;;;;;;;4782303;28;19917;-51
2022/01/26 08:42:43;;;;;;;;;;;;;;;;;;4759327;28;19942;-49
2022/01/26 08:45:08;;;;;;;;;;;;;;;;;;4808457;28;19921;-49
2022/01/26 08:47:33;;;;;;;;;;;;;;;;;;4832084;28;20645;-49
2022/01/26 08:49:58;;;;;;;;;;;;;;;;;;4827095;28;20133;-48
2022/01/26 08:52:23;;;;;;;;;;;;;;;;;;4798538;28;19924;-48
2022/01/26 08:57:40;;;;;;;;;;;;;;;;;;4802157;28;22694;-50
2022/01/26 09:00:07;;;;;;;;;;;;;;;;;;4793039;28;20446;-52
2022/01/26 09:02:32;;;;;;;;;;;;;;;;;;4790537;28;23111;-49
2022/01/26 09:05:00;;;;;;;;;;;;;;;;;;4795245;28;20605;-50
2022/01/26 09:07:25;;;;;;;;;;;;;;;;;;4763853;28;21662;-51
2022/01/26 09:09:50;;;;;;;;;;;;;;;;;;4798176;28;20680;-48
2022/01/26 09:12:16;;;;;;;;;;;;;;;;;;4834912;28;20674;-50
2022/01/26 09:14:42;;;;;;;;;;;;;;;;;;4843994;28;21586;-48
2022/01/26 09:17:08;;;;;;;;;;;;;;;;;;4838420;28;20044;-50
2022/01/26 09:19:33;;;;;;;;;;;;;;;;;;4846569;28;20659;-49
2022/01/26 09:21:58;;;;;;;;;;;;;;;;;;4854038;28;20282;-49
2022/01/26 09:24:23;;;;;;;;;;;;;;;;;;4862166;28;19917;-49
2022/01/26 09:26:48;;;;;;;;;;;;;;;;;;4811874;28;19921;-51
2022/01/26 09:29:13;;;;;;;;;;;;;;;;;;4736437;28;19921;-52
2022/01/26 09:31:38;;;;;;;;;;;;;;;;;;4753878;28;22065;-49
2022/01/26 09:34:03;;;;;;;;;;;;;;;;;;4784499;28;19924;-49
2022/01/26 09:36:30;;;;;;;;;;;;;;;;;;4857419;28;19918;-49
2022/01/26 09:38:55;;;;;;;;;;;;;;;;;;4882289;28;20633;-50
2022/01/26 09:41:23;;;;;;;;;;;;;;;;;;4862910;28;19965;-49
2022/01/26 09:43:48;;;;;;;;;;;;;;;;;;4824631;28;22965;-49
2022/01/26 09:46:13;;;;;;;;;;;;;;;;;;4862600;28;20568;-50
2022/01/26 09:48:39;;;;;;;;;;;;;;;;;;4812526;28;19917;-51
2022/01/26 09:51:04;;;;;;;;;;;;;;;;;;4838029;28;19918;-49
2022/01/26 09:53:32;;;;;;;;;;;;;;;;;;4851541;28;21167;-49
2022/01/26 09:55:58;;;;;;;;;;;;;;;;;;4822113;28;21068;-49
2022/01/26 09:58:23;;;;;;;;;;;;;;;;;;4833532;28;19992;-49
2022/01/26 10:00:48;;;;;;;;;;;;;;;;;;4841004;28;22045;-52
2022/01/26 10:03:14;;;;;;;;;;;;;;;;;;4815139;28;19921;-51
2022/01/26 10:05:40;;;;;;;;;;;;;;;;;;4812020;28;20701;-49
2022/01/26 10:08:27;;;;;;;;;;;;;;;;;;4813057;28;20023;-49
2022/01/26 10:16:59;;;;;;;;;;;;;;;;;;4777669;28;19921;-50
2022/01/26 10:19:08;;;;;;;;;;;;;;;;;;4767516;28;21480;-49
2022/01/26 10:21:34;;;;;;;;;;;;;;;;;;4751076;28;20101;-49
2022/01/26 10:23:59;;;;;;;;;;;;;;;;;;4779191;28;19961;-51
2022/01/26 10:26:24;;;;;;;;;;;;;;;;;;4789226;28;19921;-50
2022/01/26 10:28:49;;;;;;;;;;;;;;;;;;4848945;28;20001;-50
2022/01/26 10:31:14;;;;;;;;;;;;;;;;;;4886333;28;19917;-49
2022/01/26 10:33:39;;;;;;;;;;;;;;;;;;4895416;28;19918;-51
2022/01/26 10:36:04;;;;;;;;;;;;;;;;;;4899255;28;19963;-52
2022/01/26 10:38:29;;;;;;;;;;;;;;;;;;4850870;28;20011;-50
2022/01/26 10:40:54;;;;;;;;;;;;;;;;;;4849769;28;20032;-50
2022/01/26 10:43:20;;;;;;;;;;;;;;;;;;4879100;28;20100;-49
2022/01/26 10:51:34;;;;;;;;;;;;;;;;;;;;;
2022/01/26 10:53:48;;;;;;;;;;;;;;;;;;4830128;28;20020;-51
2022/01/26 10:56:13;;;;;;;;;;;;;;;;;;4805584;28;20071;-48
2022/01/26 10:58:38;;;;;;;;;;;;;;;;;;4821665;28;20048;-49
2022/01/26 11:01:03;;;;;;;;;;;;;;;;;;4840685;28;20562;-49
2022/01/26 11:03:29;;;;;;;;;;;;;;;;;;4787076;28;26107;-49
2022/01/26 11:05:54;;;;;;;;;;;;;;;;;;4774720;23;20711;-49
2022/01/26 11:08:19;;;;;;;;;;;;;;;;;;4773290;28;21943;-48
2022/01/26 11:10:44;;;;;;;;;;;;;;;;;;4794557;28;19917;-48
2022/01/26 11:13:09;;;;;;;;;;;;;;;;;;4813333;28;19931;-51
2022/01/26 11:15:34;;;;;;;;;;;;;;;;;;4848098;28;19918;-49
2022/01/26 11:17:59;;;;;;;;;;;;;;;;;;4834429;28;20041;-49
2022/01/26 11:20:35;;;;;;;;;;;;;;;;;;4873375;28;20044;-51
2022/01/26 11:23:00;;;;;;;;;;;;;;;;;;4901066;28;19953;-47
2022/01/26 11:25:25;;;;;;;;;;;;;;;;;;4900131;28;20562;-50
2022/01/26 11:27:50;;;;;;;;;;;;;;;;;;4899230;28;20008;-50
2022/01/26 11:30:15;;;;;;;;;;;;;;;;;;4908365;28;20095;-48
2022/01/26 11:32:41;;;;;;;;;;;;;;;;;;4888062;28;19917;-52
2022/01/26 11:35:09;;;;;;;;;;;;;;;;;;4900458;28;20059;-52
2022/01/26 11:37:45;;;;;;;;;;;;;;;;;;4875675;28;22038;-47
2022/01/26 11:45:22;;;;;;;;;;;;;;;;;;4855959;28;22970;-50
2022/01/26 11:47:47;;;;;;;;;;;;;;;;;;4873759;28;21521;-50
2022/01/26 11:50:14;;;;;;;;;;;;;;;;;;4847327;28;20032;-49
2022/01/26 11:52:40;;;;;;;;;;;;;;;;;;4872932;28;22477;-50
2022/01/26 11:55:09;;;;;;;;;;;;;;;;;;4876760;28;19962;-51
2022/01/26 11:57:34;;;;;;;;;;;;;;;;;;4829068;28;19926;-52
2022/01/26 12:00:01;;;;;;;;;;;;;;;;;;4827811;28;20616;-52
2022/01/26 12:02:37;;;;;;;;;;;;;;;;;;4843278;28;20672;-50
2022/01/26 12:05:04;;;;;;;;;;;;;;;;;;4895109;28;20009;-50
2022/01/26 12:07:29;;;;;;;;;;;;;;;;;;4900689;28;20614;-50
2022/01/26 12:09:56;;;;;;;;;;;;;;;;;;4905776;28;20473;-50
2022/01/26 12:12:21;;;;;;;;;;;;;;;;;;4901423;28;19925;-50
2022/01/26 12:14:47;;;;;;;;;;;;;;;;;;4899113;28;19918;-49
2022/01/26 12:17:13;;;;;;;;;;;;;;;;;;4899352;28;20592;-48
2022/01/26 12:20:02;;;;;;;;;;;;;;;;;;4878612;28;19918;-50
2022/01/26 12:38:48;;;;;;;;;;;;;;;;;;4882726;28;20048;-53
2022/01/26 12:41:31;;;;;;;;;;;;;;;;;;4896536;28;19925;-49
2022/01/26 12:43:57;;;;;;;;;;;;;;;;;;4895426;28;19917;-50
2022/01/26 12:46:22;;;;;;;;;;;;;;;;;;4917783;28;20039;-50
2022/01/26 12:48:47;;;;;;;;;;;;;;;;;;4907667;28;19918;-49
2022/01/26 12:51:12;;;;;;;;;;;;;;;;;;4916354;28;20024;-51
2022/01/26 12:53:37;;;;;;;;;;;;;;;;;;4916069;28;19918;-50
2022/01/26 12:56:02;;;;;;;;;;;;;;;;;;4915471;28;19926;-49
2022/01/26 12:58:27;;;;;;;;;;;;;;;;;;4907651;28;19925;-49
2022/01/26 13:00:53;;;;;;;;;;;;;;;;;;4890678;28;20041;-50
2022/01/26 13:03:19;;;;;;;;;;;;;;;;;;4908732;28;19924;-50
2022/01/26 13:05:45;;;;;;;;;;;;;;;;;;4920331;28;19922;-50
2022/01/26 13:08:13;;;;;;;;;;;;;;;;;;4936889;28;19925;-51
2022/01/26 13:10:38;;;;;;;;;;;;;;;;;;4947506;28;20059;-49
2022/01/26 13:13:03;;;;;;;;;;;;;;;;;;4938559;28;19917;-50
2022/01/26 13:15:30;;;;;;;;;;;;;;;;;;4926473;28;20305;-50
2022/01/26 13:18:07;;;;;;;;;;;;;;;;;;4825363;28;21269;-52
2022/01/26 13:20:43;;;;;;;;;;;;;;;;;;4854445;28;19917;-49
2022/01/26 13:25:55;;;;;;;;;;;;;;;;;;4911254;28;22501;-49
2022/01/26 13:28:35;;;;;;;;;;;;;;;;;;4941527;28;19917;-49
2022/01/26 13:33:44;;;;;;;;;;;;;;;;;;4939138;28;19923;-50
2022/01/26 13:36:27;;;;;;;;;;;;;;;;;;4957766;28;20012;-50
2022/01/26 13:39:15;;;;;;;;;;;;;;;;;;4965753;28;20051;-51
2022/01/26 13:41:56;;;;;;;;;;;;;;;;;;4929494;28;19938;-51
2022/01/26 13:59:51;;;;;;;;;;;;;;;;;;4918536;28;19917;-53
2022/01/26 14:02:17;;;;;;;;;;;;;;;;;;4926605;28;20581;-50
2022/01/26 14:04:42;;;;;;;;;;;;;;;;;;4932716;28;19955;-51
2022/01/26 14:07:07;;;;;;;;;;;;;;;;;;4885836;28;19925;-49
2022/01/26 14:09:32;;;;;;;;;;;;;;;;;;4873465;28;23905;-49
2022/01/26 14:11:59;;;;;;;;;;;;;;;;;;4877725;28;20026;-48
2022/01/26 14:14:31;;;;;;;;;;;;;;;;;;4915200;28;19917;-48
2022/01/26 14:16:59;;;;;;;;;;;;;;;;;;4949463;28;19917;-49
2022/01/26 14:24:49;;;;;;;;;;;;;;;;;;4972111;28;20668;-49
2022/01/26 14:27:14;;;;;;;;;;;;;;;;;;4972520;28;19935;-49
2022/01/26 14:30:00;;;;;;;;;;;;;;;;;;4972067;28;19924;-52
2022/01/26 14:35:21;;;;;;;;;;;;;;;;;;4971500;28;19940;-50
2022/01/26 14:41:01;;;;;;;;;;;;;;;;;;4972978;28;20456;-52
2022/01/26 15:12:09;;;;;;;;;;;;;;;;;;;;;
2022/01/26 15:21:02;;;;;;;;;;;;;;;;;;;;;
2022/01/26 15:29:54;;;;;;;;;;;;;;;;;;5001178;28;19913;-49
2022/01/26 15:30:48;;;;;;;;;;;;;;;;;;5009229;28;19917;-50
2022/01/26 15:41:24;;;;;;;;;;;;;;;;;;5005623;28;19920;-49
2022/01/26 15:44:18;;;;;;;;;;;;;;;;;;;;;
2022/01/26 15:52:46;;;;;;;;;;;;;;;;;;4979921;28;19917;-49
2022/01/26 16:05:45;;;;;;;;;;;;;;;;;;5022779;28;19925;-49
2022/01/26 16:08:25;;;;;;;;;;;;;;;;;;5030612;28;19917;-50
2022/01/26 16:21:44;;;;;;;;;;;;;;;;;;5032780;28;19943;-49
2022/01/26 16:37:46;;;;;;;;;;;;;;;;;;;;;
2022/01/26 17:02:33;;;;;;;;;;;;;;;;;;5028306;28;20000;-49
2022/01/26 17:43:16;;;;;;;;;;;;;;;;;;5036112;28;19905;-49
2022/01/26 17:43:49;;;;;;;;;;;;;;;;;;5036202;28;19911;-48
2022/01/26 18:13:04;;;;;;;;;;;;;;;;;;;;;
2022/01/26 18:15:29;;;;;;;;;;;;;;;;;;5035356;28;20315;-51
2022/01/26 18:27:03;;;;;;;;;;;;;;;;;;5035665;28;20000;-47
2022/01/26 18:40:27;;;;;;;;;;;;;;;;;;4974189;28;20386;-50
2022/01/26 18:50:50;;;;;;;;;;;;;;;;;;4974119;28;19913;-49
2022/01/26 18:53:15;;;;;;;;;;;;;;;;;;4973797;28;20345;-49
2022/01/26 18:55:40;;;;;;;;;;;;;;;;;;4973942;28;19910;-48
2022/01/26 18:58:05;;;;;;;;;;;;;;;;;;4973897;28;19942;-50
2022/01/26 19:00:30;;;;;;;;;;;;;;;;;;4973921;28;19902;-50
2022/01/26 19:02:55;;;;;;;;;;;;;;;;;;4972391;28;20239;-49
2022/01/26 19:05:20;;;;;;;;;;;;;;;;;;4974714;28;20426;-48
2022/01/26 19:07:45;;;;;;;;;;;;;;;;;;4991626;28;19917;-49
2022/01/26 19:10:11;;;;;;;;;;;;;;;;;;4994326;28;19960;-48
2022/01/26 19:12:38;;;;;;;;;;;;;;;;;;5014654;28;19909;-51
2022/01/26 19:15:07;;;;;;;;;;;;;;;;;;5016166;28;20327;-49
2022/01/26 19:17:49;;;;;;;;;;;;;;;;;;5015259;28;19912;-49
2022/01/26 19:20:58;;;;;;;;;;;;;;;;;;4998602;28;19913;-52
2022/01/26 19:23:20;;;;;;;;;;;;;;;;;;5011027;28;19917;-49
2022/01/26 19:25:51;;;;;;;;;;;;;;;;;;5014556;28;20024;-49
2022/01/26 19:28:23;;;;;;;;;;;;;;;;;;5016205;28;19916;-49
2022/01/26 19:47:15;;;;;;;;;;;;;;;;;;;;;
2022/01/26 19:52:11;;;;;;;;;;;;;;;;;;4938882;29;20359;-48
2022/01/26 19:54:36;;;;;;;;;;;;;;;;;;4938567;29;19914;-49
2022/01/26 19:57:01;;;;;;;;;;;;;;;;;;4938566;29;19906;-48
2022/01/26 19:59:26;;;;;;;;;;;;;;;;;;4938561;29;19945;-50
2022/01/26 20:01:51;;;;;;;;;;;;;;;;;;4938771;29;19930;-47
2022/01/26 20:04:17;;;;;;;;;;;;;;;;;;4938580;29;19961;-53
2022/01/26 20:06:43;;;;;;;;;;;;;;;;;;4946865;29;19918;-48
2022/01/26 20:09:18;;;;;;;;;;;;;;;;;;4957411;29;20478;-50
2022/01/26 20:11:54;;;;;;;;;;;;;;;;;;4957480;29;20354;-48
2022/01/26 20:14:23;;;;;;;;;;;;;;;;;;4957386;29;19906;-47
2022/01/26 20:16:48;;;;;;;;;;;;;;;;;;5020407;28;19913;-48
2022/01/26 20:19:14;;;;;;;;;;;;;;;;;;5037576;28;19905;-50
2022/01/26 20:21:39;;;;;;;;;;;;;;;;;;5019949;28;20331;-48
2022/01/26 20:24:04;;;;;;;;;;;;;;;;;;5037575;28;19907;-48
2022/01/26 20:26:29;;;;;;;;;;;;;;;;;;5037519;28;19909;-49
2022/01/26 20:28:54;;;;;;;;;;;;;;;;;;5037565;28;19905;-47
2022/01/26 20:31:22;;;;;;;;;;;;;;;;;;5037513;28;20000;-48
2022/01/26 20:33:47;;;;;;;;;;;;;;;;;;5037333;28;19905;-48
2022/01/26 20:36:12;;;;;;;;;;;;;;;;;;5037272;28;19967;-49
2022/01/26 20:38:39;;;;;;;;;;;;;;;;;;5036709;28;19909;-49
2022/01/26 20:41:05;;;;;;;;;;;;;;;;;;5037339;28;20252;-49
2022/01/26 20:43:30;;;;;;;;;;;;;;;;;;5036416;28;19909;-50
2022/01/26 20:45:55;;;;;;;;;;;;;;;;;;5037194;28;19932;-48
2022/01/26 20:48:20;;;;;;;;;;;;;;;;;;5036623;28;19909;-47
2022/01/26 20:50:46;;;;;;;;;;;;;;;;;;5037626;28;19905;-47
2022/01/26 20:53:11;;;;;;;;;;;;;;;;;;5036948;28;19905;-47
2022/01/26 20:55:36;;;;;;;;;;;;;;;;;;5037059;28;19905;-48
2022/01/26 20:58:02;;;;;;;;;;;;;;;;;;5037115;28;19912;-48
2022/01/26 21:00:27;;;;;;;;;;;;;;;;;;5036984;28;20426;-48
2022/01/26 21:02:53;;;;;;;;;;;;;;;;;;5036843;28;19959;-48
2022/01/26 21:05:18;;;;;;;;;;;;;;;;;;5036602;28;19981;-48
2022/01/26 21:07:43;;;;;;;;;;;;;;;;;;5036440;28;19917;-48
2022/01/26 21:10:10;;;;;;;;;;;;;;;;;;5036722;28;19952;-49
2022/01/26 21:12:35;;;;;;;;;;;;;;;;;;5036735;28;19912;-48
2022/01/26 21:15:00;;;;;;;;;;;;;;;;;;5036549;28;19905;-50
2022/01/26 21:17:26;;;;;;;;;;;;;;;;;;5036490;28;19912;-47
2022/01/26 21:19:51;;;;;;;;;;;;;;;;;;5036311;28;19912;-47
2022/01/26 21:22:16;;;;;;;;;;;;;;;;;;5036352;28;19913;-48
2022/01/26 21:24:41;;;;;;;;;;;;;;;;;;5035805;28;19955;-48
2022/01/26 21:27:06;;;;;;;;;;;;;;;;;;5036275;28;19909;-50
2022/01/26 21:29:31;;;;;;;;;;;;;;;;;;5036464;28;19909;-47
2022/01/26 21:31:56;;;;;;;;;;;;;;;;;;5036225;28;20348;-47
2022/01/26 21:34:21;;;;;;;;;;;;;;;;;;5036228;28;19974;-48
2022/01/26 21:36:46;;;;;;;;;;;;;;;;;;5035979;28;19905;-47
2022/01/26 21:39:11;;;;;;;;;;;;;;;;;;5036008;28;20055;-50
2022/01/26 21:41:37;;;;;;;;;;;;;;;;;;5036022;28;19909;-50
2022/01/26 21:44:02;;;;;;;;;;;;;;;;;;5035958;28;19904;-51
2022/01/26 21:46:27;;;;;;;;;;;;;;;;;;5035830;28;19909;-48
2022/01/26 21:48:52;;;;;;;;;;;;;;;;;;5036042;28;19912;-49
2022/01/26 21:51:17;;;;;;;;;;;;;;;;;;5035030;28;19912;-50
2022/01/26 21:53:42;;;;;;;;;;;;;;;;;;5035808;28;20326;-50
2022/01/26 21:56:07;;;;;;;;;;;;;;;;;;5035828;28;19959;-48
2022/01/26 21:58:33;;;;;;;;;;;;;;;;;;5035804;28;19912;-49
2022/01/26 22:00:58;;;;;;;;;;;;;;;;;;5035654;28;19912;-48
2022/01/26 22:03:23;;;;;;;;;;;;;;;;;;5035779;28;19913;-47
2022/01/26 22:05:48;;;;;;;;;;;;;;;;;;5035416;28;20003;-51
2022/01/26 22:08:15;;;;;;;;;;;;;;;;;;5035785;28;19924;-48
2022/01/26 22:10:40;;;;;;;;;;;;;;;;;;5035448;28;19912;-49
2022/01/26 22:13:05;;;;;;;;;;;;;;;;;;5035374;28;20008;-52
2022/01/26 22:15:31;;;;;;;;;;;;;;;;;;5035559;28;19905;-49
2022/01/26 22:17:56;;;;;;;;;;;;;;;;;;5035431;28;19905;-50
2022/01/26 22:20:21;;;;;;;;;;;;;;;;;;5035430;28;19905;-50
2022/01/26 22:22:47;;;;;;;;;;;;;;;;;;5035454;28;20241;-49
2022/01/26 22:25:14;;;;;;;;;;;;;;;;;;5035451;28;19905;-50
2022/01/26 22:27:42;;;;;;;;;;;;;;;;;;5035275;28;20375;-49
2022/01/26 22:30:08;;;;;;;;;;;;;;;;;;5035359;28;19955;-49
2022/01/26 22:32:33;;;;;;;;;;;;;;;;;;5035212;28;19905;-48
2022/01/26 22:34:58;;;;;;;;;;;;;;;;;;5035049;28;19959;-47
2022/01/26 22:37:25;;;;;;;;;;;;;;;;;;5035075;28;19948;-51
2022/01/26 22:39:51;;;;;;;;;;;;;;;;;;5035245;28;19916;-49
2022/01/26 22:42:16;;;;;;;;;;;;;;;;;;5035185;28;19905;-50
2022/01/26 22:44:41;;;;;;;;;;;;;;;;;;5035005;28;19908;-49
2022/01/26 22:47:06;;;;;;;;;;;;;;;;;;5034729;28;19909;-50
2022/01/26 22:49:31;;;;;;;;;;;;;;;;;;5034827;28;19905;-49
2022/01/26 22:51:56;;;;;;;;;;;;;;;;;;5034860;28;19905;-50
2022/01/26 22:54:21;;;;;;;;;;;;;;;;;;5034819;28;19905;-48
2022/01/26 22:56:46;;;;;;;;;;;;;;;;;;5034649;28;19912;-47
2022/01/26 22:59:11;;;;;;;;;;;;;;;;;;5034804;28;19909;-48
2022/01/26 23:04:08;;;;;;;;;;;;;;;;;;5034763;28;20337;-48
2022/01/26 23:06:34;;;;;;;;;;;;;;;;;;5018290;23;19972;-50
2022/01/26 23:08:59;;;;;;;;;;;;;;;;;;4995166;28;20320;-52